Aksa, Russia
Current Conditions -  °F | °C
As of 4:30 PM on Saturday 25 Oct 2014 (Local Time) from UIAA Reporting Station
Few Clouds Few Clouds  
Wind Chill: 16°   Ceiling: Unl
Heat Index: 28°   Visibility: 6mi
Dew Point: -2°   Wind: 18mph
Humidity: 27%   Direction: 330°NNW
Pressure: 30.06"   Gusts: NA
Location:  50.27°N, 113.27°E
Report Text: UIAA 250730Z 33008MPS 9999 FEW050 M02/M19 Q1018 TEMPO34008G16MPS RMK QFE704 29CLRD70
Loading
Personal Weather Stations






























Interactive Weather Map
Tropical Storm Tracking
New forecast layout! Learn more

10-Day Weather Forecast

Advertisements
Track Severe Weather on mobile